Airfield :
LOGIN :

Register | Disclaimer

   EN    FR    IT 

 










Legend :    VFR   Marginal VFR   IFR   Intensive IFR   Very Intensive IFR
Visi :
Ceiling :
>= 8 km
>= 3000ft
5 to 8 km
1000 to 3000 ft
1500m to 5 km
500 to 1000 ft
800 to 1500m
200 to 500 ft
< 800m
< 200 ft
Symbols :   Thunderstorms  Fog  Heavy snow  Heavy precipitations  Wind > 20 kt
SIGMETs :     Misc.  Thunderstorms  Icing  Turbulence  Mountain Waves  Volcanic Ashes







- Airport Elevation : 1234 ft
- IATA code : LUX


ELLX - Luxembourg Findel

CURRENT METAR :
  • 190650Z 08004KT 7000 MIFG NSC 10/09 Q1013 NOSIG

EXPIRED METARs :
  • 190620Z 08004KT 7000 MIFG NSC 09/08 Q1012 TEMPO 2500 BR NSC
  • 190550Z 06005KT 6000 MIFG NSC 10/09 Q1012 TEMPO 2500 BR NSC
  • 190520Z 08004KT 8000 NSC 09/08 Q1013 TEMPO 3000 BR NSC
  • 190450Z 08004KT 9000 NSC 10/09 Q1013 TEMPO 3000 BR NSC
  • 190420Z 07005KT 9000 NSC 09/09 Q1013 TEMPO 3000 BR NSC

TAF TAF ELLX
Valid from the 19 at 06:00 until the 20 at 12:00 UTC


190500Z 1906/2012 06005KT 3500 BR NSC
BECMG 1906/1908 15006KT CAVOK
BECMG 2003/2005 BKN030
TEMPO 2005/2012 7000 -RA SCT012 BKN020
ATIS : +352 4798 27300
Met : +352 4798 27010 / 27050
No reported NOTAMs for that airfield.



MET'MAP, your aeronautical weather chart ! - Copyright ORBIFLY December 2007 - Disclaimer

ORBIFLY MET'MAP TEAM :

Programming & Development : Alexandra Zaïnal
Concept & Development : Baudouin d'Aumeries
Co-Development & Prog : Marc-Olivier Méhu
Technical & hardware support : Manuel Goepfert

Contact : metmap@orbifly.com




SOURCES & CREDITS :

   NOAA